sensor_id;sensor_type;location;lat;lon;timestamp;P1;durP1;ratioP1;P2;durP2;ratioP2
25913;SDS011;13718;50.922;5.346;2023-05-07T00:00:08;21.50;;;12.68;;
25913;SDS011;13718;50.922;5.346;2023-05-07T00:02:34;21.88;;;12.05;;
25913;SDS011;13718;50.922;5.346;2023-05-07T00:05:00;21.52;;;12.95;;
25913;SDS011;13718;50.922;5.346;2023-05-07T00:07:27;17.60;;;12.27;;
25913;SDS011;13718;50.922;5.346;2023-05-07T00:09:53;25.17;;;14.02;;
25913;SDS011;13718;50.922;5.346;2023-05-07T00:12:18;21.23;;;12.90;;
25913;SDS011;13718;50.922;5.346;2023-05-07T00:14:44;17.75;;;11.73;;
25913;SDS011;13718;50.922;5.346;2023-05-07T00:17:10;17.90;;;12.52;;
25913;SDS011;13718;50.922;5.346;2023-05-07T00:19:36;16.73;;;11.68;;
25913;SDS011;13718;50.922;5.346;2023-05-07T00:22:01;19.33;;;12.15;;
25913;SDS011;13718;50.922;5.346;2023-05-07T00:24:27;17.75;;;12.32;;
25913;SDS011;13718;50.922;5.346;2023-05-07T00:26:52;20.38;;;11.73;;
25913;SDS011;13718;50.922;5.346;2023-05-07T00:29:18;21.40;;;12.02;;
25913;SDS011;13718;50.922;5.346;2023-05-07T00:31:44;18.00;;;11.05;;
25913;SDS011;13718;50.922;5.346;2023-05-07T00:34:09;18.23;;;11.75;;
25913;SDS011;13718;50.922;5.346;2023-05-07T00:36:35;19.17;;;11.82;;
25913;SDS011;13718;50.922;5.346;2023-05-07T00:39:01;19.80;;;12.25;;
25913;SDS011;13718;50.922;5.346;2023-05-07T00:41:28;19.45;;;12.70;;
25913;SDS011;13718;50.922;5.346;2023-05-07T00:43:55;17.98;;;11.88;;
25913;SDS011;13718;50.922;5.346;2023-05-07T00:46:21;19.10;;;11.48;;
25913;SDS011;13718;50.922;5.346;2023-05-07T00:48:49;19.00;;;12.25;;
25913;SDS011;13718;50.922;5.346;2023-05-07T00:51:16;19.10;;;12.38;;
25913;SDS011;13718;50.922;5.346;2023-05-07T00:53:43;18.50;;;12.50;;
25913;SDS011;13718;50.922;5.346;2023-05-07T00:56:08;19.77;;;12.30;;
25913;SDS011;13718;50.922;5.346;2023-05-07T00:58:35;17.52;;;12.32;;
25913;SDS011;13718;50.922;5.346;2023-05-07T01:01:01;19.08;;;11.32;;
25913;SDS011;13718;50.922;5.346;2023-05-07T01:03:27;18.58;;;11.98;;
25913;SDS011;13718;50.922;5.346;2023-05-07T01:05:52;16.02;;;10.57;;
25913;SDS011;13718;50.922;5.346;2023-05-07T01:08:20;16.25;;;10.23;;
25913;SDS011;13718;50.922;5.346;2023-05-07T01:10:47;16.60;;;10.40;;
25913;SDS011;13718;50.922;5.346;2023-05-07T01:13:13;15.25;;;9.98;;
25913;SDS011;13718;50.922;5.346;2023-05-07T01:15:39;14.40;;;9.35;;
25913;SDS011;13718;50.922;5.346;2023-05-07T01:18:06;16.75;;;9.95;;
25913;SDS011;13718;50.922;5.346;2023-05-07T01:20:32;17.35;;;10.70;;
25913;SDS011;13718;50.922;5.346;2023-05-07T01:22:57;16.20;;;10.13;;
25913;SDS011;13718;50.922;5.346;2023-05-07T01:25:25;17.40;;;10.02;;
25913;SDS011;13718;50.922;5.346;2023-05-07T01:27:51;15.02;;;9.55;;
25913;SDS011;13718;50.922;5.346;2023-05-07T01:30:16;14.43;;;8.70;;
25913;SDS011;13718;50.922;5.346;2023-05-07T01:32:50;14.27;;;9.27;;
25913;SDS011;13718;50.922;5.346;2023-05-07T01:35:30;16.23;;;9.98;;
25913;SDS011;13718;50.922;5.346;2023-05-07T01:38:00;14.25;;;9.50;;
25913;SDS011;13718;50.922;5.346;2023-05-07T01:40:29;21.35;;;10.02;;
25913;SDS011;13718;50.922;5.346;2023-05-07T01:42:55;14.30;;;9.88;;
25913;SDS011;13718;50.922;5.346;2023-05-07T01:45:21;16.08;;;9.85;;
25913;SDS011;13718;50.922;5.346;2023-05-07T01:47:47;15.60;;;9.43;;
25913;SDS011;13718;50.922;5.346;2023-05-07T01:50:14;14.05;;;9.35;;
25913;SDS011;13718;50.922;5.346;2023-05-07T01:52:42;15.98;;;9.60;;
25913;SDS011;13718;50.922;5.346;2023-05-07T01:55:08;14.45;;;9.07;;
25913;SDS011;13718;50.922;5.346;2023-05-07T01:57:33;20.13;;;10.25;;
25913;SDS011;13718;50.922;5.346;2023-05-07T01:59:59;15.40;;;9.75;;
25913;SDS011;13718;50.922;5.346;2023-05-07T02:02:24;15.15;;;9.60;;
25913;SDS011;13718;50.922;5.346;2023-05-07T02:04:50;17.23;;;9.45;;
25913;SDS011;13718;50.922;5.346;2023-05-07T02:07:16;18.40;;;10.02;;
25913;SDS011;13718;50.922;5.346;2023-05-07T02:09:41;18.23;;;9.88;;
25913;SDS011;13718;50.922;5.346;2023-05-07T02:12:07;14.82;;;10.15;;
25913;SDS011;13718;50.922;5.346;2023-05-07T02:14:32;17.15;;;9.68;;
25913;SDS011;13718;50.922;5.346;2023-05-07T02:16:58;18.38;;;10.23;;
25913;SDS011;13718;50.922;5.346;2023-05-07T02:19:23;14.77;;;10.05;;
25913;SDS011;13718;50.922;5.346;2023-05-07T02:21:49;16.67;;;10.27;;
25913;SDS011;13718;50.922;5.346;2023-05-07T02:24:15;18.55;;;10.93;;
25913;SDS011;13718;50.922;5.346;2023-05-07T02:26:41;18.30;;;11.02;;
25913;SDS011;13718;50.922;5.346;2023-05-07T02:29:07;15.10;;;10.13;;
25913;SDS011;13718;50.922;5.346;2023-05-07T02:31:32;23.33;;;12.05;;
25913;SDS011;13718;50.922;5.346;2023-05-07T02:33:59;16.67;;;11.32;;
25913;SDS011;13718;50.922;5.346;2023-05-07T02:36:25;21.27;;;11.73;;
25913;SDS011;13718;50.922;5.346;2023-05-07T02:38:51;19.35;;;11.05;;
25913;SDS011;13718;50.922;5.346;2023-05-07T02:41:17;19.17;;;12.18;;
25913;SDS011;13718;50.922;5.346;2023-05-07T02:43:43;17.92;;;11.77;;
25913;SDS011;13718;50.922;5.346;2023-05-07T02:46:09;18.45;;;11.52;;
25913;SDS011;13718;50.922;5.346;2023-05-07T02:48:35;18.92;;;12.07;;
25913;SDS011;13718;50.922;5.346;2023-05-07T02:51:00;16.73;;;12.40;;
25913;SDS011;13718;50.922;5.346;2023-05-07T02:53:27;18.63;;;12.88;;
25913;SDS011;13718;50.922;5.346;2023-05-07T02:55:55;19.00;;;12.50;;
25913;SDS011;13718;50.922;5.346;2023-05-07T02:58:22;18.88;;;12.23;;
25913;SDS011;13718;50.922;5.346;2023-05-07T03:00:48;18.50;;;12.50;;
25913;SDS011;13718;50.922;5.346;2023-05-07T03:03:14;19.45;;;12.20;;
25913;SDS011;13718;50.922;5.346;2023-05-07T03:05:40;20.75;;;12.45;;
25913;SDS011;13718;50.922;5.346;2023-05-07T03:08:07;19.00;;;11.98;;
25913;SDS011;13718;50.922;5.346;2023-05-07T03:10:33;19.77;;;12.63;;
25913;SDS011;13718;50.922;5.346;2023-05-07T03:12:58;20.30;;;11.88;;
25913;SDS011;13718;50.922;5.346;2023-05-07T03:15:24;22.42;;;12.45;;
25913;SDS011;13718;50.922;5.346;2023-05-07T03:17:50;26.25;;;13.35;;
25913;SDS011;13718;50.922;5.346;2023-05-07T03:20:16;20.38;;;12.88;;
25913;SDS011;13718;50.922;5.346;2023-05-07T03:22:41;18.58;;;12.70;;
25913;SDS011;13718;50.922;5.346;2023-05-07T03:25:07;18.83;;;12.40;;
25913;SDS011;13718;50.922;5.346;2023-05-07T03:27:33;19.75;;;13.02;;
25913;SDS011;13718;50.922;5.346;2023-05-07T03:29:59;19.88;;;12.75;;
25913;SDS011;13718;50.922;5.346;2023-05-07T03:32:25;19.42;;;13.25;;
25913;SDS011;13718;50.922;5.346;2023-05-07T03:34:51;20.98;;;13.13;;
25913;SDS011;13718;50.922;5.346;2023-05-07T03:37:17;20.17;;;13.50;;
25913;SDS011;13718;50.922;5.346;2023-05-07T03:39:43;19.73;;;13.68;;
25913;SDS011;13718;50.922;5.346;2023-05-07T03:42:09;19.75;;;13.52;;
25913;SDS011;13718;50.922;5.346;2023-05-07T03:44:34;18.60;;;12.60;;
25913;SDS011;13718;50.922;5.346;2023-05-07T03:47:01;17.13;;;12.60;;
25913;SDS011;13718;50.922;5.346;2023-05-07T03:49:27;18.98;;;12.88;;
25913;SDS011;13718;50.922;5.346;2023-05-07T03:51:53;18.35;;;12.95;;
25913;SDS011;13718;50.922;5.346;2023-05-07T03:54:19;21.35;;;13.55;;
25913;SDS011;13718;50.922;5.346;2023-05-07T03:56:44;21.63;;;12.68;;
25913;SDS011;13718;50.922;5.346;2023-05-07T03:59:10;24.38;;;12.50;;
25913;SDS011;13718;50.922;5.346;2023-05-07T04:01:37;21.60;;;13.77;;
25913;SDS011;13718;50.922;5.346;2023-05-07T04:04:02;25.92;;;13.75;;
25913;SDS011;13718;50.922;5.346;2023-05-07T04:06:29;22.23;;;12.93;;
25913;SDS011;13718;50.922;5.346;2023-05-07T04:08:55;18.95;;;12.77;;
25913;SDS011;13718;50.922;5.346;2023-05-07T04:11:20;19.65;;;13.32;;
25913;SDS011;13718;50.922;5.346;2023-05-07T04:13:46;20.92;;;13.55;;
25913;SDS011;13718;50.922;5.346;2023-05-07T04:16:12;23.35;;;13.68;;
25913;SDS011;13718;50.922;5.346;2023-05-07T04:18:38;21.55;;;12.98;;
25913;SDS011;13718;50.922;5.346;2023-05-07T04:21:04;22.17;;;13.95;;
25913;SDS011;13718;50.922;5.346;2023-05-07T04:23:29;19.30;;;13.77;;
25913;SDS011;13718;50.922;5.346;2023-05-07T04:25:55;20.50;;;13.43;;
25913;SDS011;13718;50.922;5.346;2023-05-07T04:28:22;21.33;;;14.10;;
25913;SDS011;13718;50.922;5.346;2023-05-07T04:30:48;27.95;;;14.98;;
25913;SDS011;13718;50.922;5.346;2023-05-07T04:33:14;20.63;;;14.15;;
25913;SDS011;13718;50.922;5.346;2023-05-07T04:35:41;21.95;;;14.48;;
25913;SDS011;13718;50.922;5.346;2023-05-07T04:38:07;23.58;;;15.65;;
25913;SDS011;13718;50.922;5.346;2023-05-07T04:40:33;23.33;;;16.27;;
25913;SDS011;13718;50.922;5.346;2023-05-07T04:43:01;23.00;;;15.77;;
25913;SDS011;13718;50.922;5.346;2023-05-07T04:45:26;24.70;;;16.27;;
25913;SDS011;13718;50.922;5.346;2023-05-07T04:47:52;26.80;;;16.70;;
25913;SDS011;13718;50.922;5.346;2023-05-07T04:50:17;23.67;;;16.73;;
25913;SDS011;13718;50.922;5.346;2023-05-07T04:52:44;25.30;;;16.85;;
25913;SDS011;13718;50.922;5.346;2023-05-07T04:55:10;25.52;;;16.65;;
25913;SDS011;13718;50.922;5.346;2023-05-07T04:57:36;30.08;;;16.40;;
25913;SDS011;13718;50.922;5.346;2023-05-07T05:00:04;23.15;;;15.52;;
25913;SDS011;13718;50.922;5.346;2023-05-07T05:02:30;25.92;;;16.70;;
25913;SDS011;13718;50.922;5.346;2023-05-07T05:04:56;23.23;;;15.38;;
25913;SDS011;13718;50.922;5.346;2023-05-07T05:07:22;21.00;;;14.52;;
25913;SDS011;13718;50.922;5.346;2023-05-07T05:09:47;23.17;;;15.68;;
25913;SDS011;13718;50.922;5.346;2023-05-07T05:12:13;26.92;;;15.15;;
25913;SDS011;13718;50.922;5.346;2023-05-07T05:14:38;22.88;;;14.50;;
25913;SDS011;13718;50.922;5.346;2023-05-07T05:17:04;22.67;;;15.57;;
25913;SDS011;13718;50.922;5.346;2023-05-07T05:19:29;21.23;;;14.48;;
25913;SDS011;13718;50.922;5.346;2023-05-07T05:21:55;19.42;;;13.88;;
25913;SDS011;13718;50.922;5.346;2023-05-07T05:24:21;22.10;;;14.43;;
25913;SDS011;13718;50.922;5.346;2023-05-07T05:26:46;20.15;;;13.15;;
25913;SDS011;13718;50.922;5.346;2023-05-07T05:29:12;17.88;;;13.30;;
25913;SDS011;13718;50.922;5.346;2023-05-07T05:31:38;18.52;;;12.70;;
25913;SDS011;13718;50.922;5.346;2023-05-07T05:34:03;17.23;;;12.38;;
25913;SDS011;13718;50.922;5.346;2023-05-07T05:36:29;17.05;;;12.05;;
25913;SDS011;13718;50.922;5.346;2023-05-07T05:38:55;22.55;;;13.07;;
25913;SDS011;13718;50.922;5.346;2023-05-07T05:41:21;19.95;;;12.02;;
25913;SDS011;13718;50.922;5.346;2023-05-07T05:43:46;15.43;;;10.70;;
25913;SDS011;13718;50.922;5.346;2023-05-07T05:46:12;18.88;;;11.48;;
25913;SDS011;13718;50.922;5.346;2023-05-07T05:48:37;15.73;;;11.07;;
25913;SDS011;13718;50.922;5.346;2023-05-07T05:51:03;17.90;;;10.57;;
25913;SDS011;13718;50.922;5.346;2023-05-07T05:53:29;16.27;;;10.68;;
25913;SDS011;13718;50.922;5.346;2023-05-07T05:55:54;15.18;;;9.75;;
25913;SDS011;13718;50.922;5.346;2023-05-07T05:58:20;11.93;;;9.25;;
25913;SDS011;13718;50.922;5.346;2023-05-07T06:00:46;13.05;;;9.23;;
25913;SDS011;13718;50.922;5.346;2023-05-07T06:03:13;15.50;;;8.80;;
25913;SDS011;13718;50.922;5.346;2023-05-07T06:05:38;14.32;;;9.55;;
25913;SDS011;13718;50.922;5.346;2023-05-07T06:08:04;15.15;;;8.68;;
25913;SDS011;13718;50.922;5.346;2023-05-07T06:10:30;12.45;;;8.50;;
25913;SDS011;13718;50.922;5.346;2023-05-07T06:12:56;14.98;;;9.10;;
25913;SDS011;13718;50.922;5.346;2023-05-07T06:15:22;12.75;;;8.82;;
25913;SDS011;13718;50.922;5.346;2023-05-07T06:17:47;13.80;;;8.90;;
25913;SDS011;13718;50.922;5.346;2023-05-07T06:20:14;12.95;;;8.88;;
25913;SDS011;13718;50.922;5.346;2023-05-07T06:22:39;11.20;;;8.98;;
25913;SDS011;13718;50.922;5.346;2023-05-07T06:25:05;17.17;;;8.77;;
25913;SDS011;13718;50.922;5.346;2023-05-07T06:27:31;15.27;;;8.52;;
25913;SDS011;13718;50.922;5.346;2023-05-07T06:29:57;13.00;;;8.32;;
25913;SDS011;13718;50.922;5.346;2023-05-07T06:32:22;11.52;;;8.40;;
25913;SDS011;13718;50.922;5.346;2023-05-07T06:34:48;12.38;;;8.23;;
25913;SDS011;13718;50.922;5.346;2023-05-07T06:37:14;10.43;;;7.97;;
25913;SDS011;13718;50.922;5.346;2023-05-07T06:39:39;11.98;;;8.35;;
25913;SDS011;13718;50.922;5.346;2023-05-07T06:42:05;10.13;;;7.45;;
25913;SDS011;13718;50.922;5.346;2023-05-07T06:44:31;10.93;;;7.00;;
25913;SDS011;13718;50.922;5.346;2023-05-07T06:46:56;10.82;;;6.65;;
25913;SDS011;13718;50.922;5.346;2023-05-07T06:49:22;9.82;;;7.07;;
25913;SDS011;13718;50.922;5.346;2023-05-07T06:51:48;12.00;;;6.85;;
25913;SDS011;13718;50.922;5.346;2023-05-07T06:54:13;10.77;;;6.30;;
25913;SDS011;13718;50.922;5.346;2023-05-07T06:56:39;14.32;;;6.70;;
25913;SDS011;13718;50.922;5.346;2023-05-07T06:59:05;8.07;;;6.60;;
25913;SDS011;13718;50.922;5.346;2023-05-07T07:01:31;9.93;;;6.55;;
25913;SDS011;13718;50.922;5.346;2023-05-07T07:03:57;16.15;;;7.80;;
25913;SDS011;13718;50.922;5.346;2023-05-07T07:06:23;9.95;;;7.03;;
25913;SDS011;13718;50.922;5.346;2023-05-07T07:08:48;13.55;;;7.47;;
25913;SDS011;13718;50.922;5.346;2023-05-07T07:11:14;12.00;;;7.38;;
25913;SDS011;13718;50.922;5.346;2023-05-07T07:13:40;11.77;;;7.35;;
25913;SDS011;13718;50.922;5.346;2023-05-07T07:16:06;13.68;;;7.15;;
25913;SDS011;13718;50.922;5.346;2023-05-07T07:18:31;11.57;;;6.55;;
25913;SDS011;13718;50.922;5.346;2023-05-07T07:20:57;9.93;;;6.47;;
25913;SDS011;13718;50.922;5.346;2023-05-07T07:23:23;8.45;;;6.50;;
25913;SDS011;13718;50.922;5.346;2023-05-07T07:25:48;12.95;;;6.85;;
25913;SDS011;13718;50.922;5.346;2023-05-07T07:28:14;12.57;;;6.28;;
25913;SDS011;13718;50.922;5.346;2023-05-07T07:30:40;9.55;;;5.90;;
25913;SDS011;13718;50.922;5.346;2023-05-07T07:33:06;10.40;;;6.38;;
25913;SDS011;13718;50.922;5.346;2023-05-07T07:35:32;13.95;;;6.05;;
25913;SDS011;13718;50.922;5.346;2023-05-07T07:37:57;8.68;;;5.97;;
25913;SDS011;13718;50.922;5.346;2023-05-07T07:40:23;8.07;;;5.35;;
25913;SDS011;13718;50.922;5.346;2023-05-07T07:42:49;8.80;;;5.50;;
25913;SDS011;13718;50.922;5.346;2023-05-07T07:45:15;8.18;;;5.07;;
25913;SDS011;13718;50.922;5.346;2023-05-07T07:47:41;9.27;;;5.45;;
25913;SDS011;13718;50.922;5.346;2023-05-07T07:50:07;8.48;;;5.35;;
25913;SDS011;13718;50.922;5.346;2023-05-07T07:52:33;8.85;;;4.82;;
25913;SDS011;13718;50.922;5.346;2023-05-07T07:54:59;9.52;;;5.03;;
25913;SDS011;13718;50.922;5.346;2023-05-07T07:57:24;9.20;;;5.00;;
25913;SDS011;13718;50.922;5.346;2023-05-07T07:59:50;7.85;;;4.75;;
25913;SDS011;13718;50.922;5.346;2023-05-07T08:02:16;8.60;;;5.30;;
25913;SDS011;13718;50.922;5.346;2023-05-07T08:04:42;6.63;;;4.78;;
25913;SDS011;13718;50.922;5.346;2023-05-07T08:07:08;8.05;;;4.70;;
25913;SDS011;13718;50.922;5.346;2023-05-07T08:09:35;9.32;;;4.38;;
25913;SDS011;13718;50.922;5.346;2023-05-07T08:12:02;6.55;;;4.47;;
25913;SDS011;13718;50.922;5.346;2023-05-07T08:14:28;8.57;;;5.03;;
25913;SDS011;13718;50.922;5.346;2023-05-07T08:16:54;6.50;;;4.43;;
25913;SDS011;13718;50.922;5.346;2023-05-07T08:19:20;6.93;;;4.15;;
25913;SDS011;13718;50.922;5.346;2023-05-07T08:21:46;6.85;;;4.10;;
25913;SDS011;13718;50.922;5.346;2023-05-07T08:24:13;7.35;;;4.00;;
25913;SDS011;13718;50.922;5.346;2023-05-07T08:26:42;10.23;;;4.57;;
25913;SDS011;13718;50.922;5.346;2023-05-07T08:29:09;9.40;;;4.50;;
25913;SDS011;13718;50.922;5.346;2023-05-07T08:31:34;8.02;;;4.50;;
25913;SDS011;13718;50.922;5.346;2023-05-07T08:34:00;7.22;;;4.53;;
25913;SDS011;13718;50.922;5.346;2023-05-07T08:36:26;9.25;;;4.68;;
25913;SDS011;13718;50.922;5.346;2023-05-07T08:38:52;8.23;;;4.20;;
25913;SDS011;13718;50.922;5.346;2023-05-07T08:41:18;7.60;;;4.43;;
25913;SDS011;13718;50.922;5.346;2023-05-07T08:43:45;9.30;;;4.80;;
25913;SDS011;13718;50.922;5.346;2023-05-07T08:46:16;8.23;;;4.93;;
25913;SDS011;13718;50.922;5.346;2023-05-07T08:48:47;10.07;;;5.10;;
25913;SDS011;13718;50.922;5.346;2023-05-07T08:51:15;7.32;;;4.60;;
25913;SDS011;13718;50.922;5.346;2023-05-07T08:53:42;7.45;;;4.50;;
25913;SDS011;13718;50.922;5.346;2023-05-07T08:56:09;10.07;;;5.22;;
25913;SDS011;13718;50.922;5.346;2023-05-07T08:58:35;9.10;;;4.65;;
25913;SDS011;13718;50.922;5.346;2023-05-07T09:01:02;10.45;;;3.88;;
25913;SDS011;13718;50.922;5.346;2023-05-07T09:03:32;6.60;;;3.60;;
25913;SDS011;13718;50.922;5.346;2023-05-07T09:05:57;8.07;;;3.58;;
25913;SDS011;13718;50.922;5.346;2023-05-07T09:08:26;7.05;;;4.05;;
25913;SDS011;13718;50.922;5.346;2023-05-07T09:10:52;6.53;;;3.70;;
25913;SDS011;13718;50.922;5.346;2023-05-07T09:13:19;9.85;;;3.90;;
25913;SDS011;13718;50.922;5.346;2023-05-07T09:15:44;7.10;;;4.40;;
25913;SDS011;13718;50.922;5.346;2023-05-07T09:18:10;8.15;;;4.38;;
25913;SDS011;13718;50.922;5.346;2023-05-07T09:20:37;8.48;;;4.60;;
25913;SDS011;13718;50.922;5.346;2023-05-07T09:23:03;8.13;;;4.35;;
25913;SDS011;13718;50.922;5.346;2023-05-07T09:25:29;10.95;;;4.82;;
25913;SDS011;13718;50.922;5.346;2023-05-07T09:27:56;6.93;;;4.40;;
25913;SDS011;13718;50.922;5.346;2023-05-07T09:30:22;7.72;;;5.57;;
25913;SDS011;13718;50.922;5.346;2023-05-07T09:32:48;9.15;;;5.80;;
25913;SDS011;13718;50.922;5.346;2023-05-07T09:35:14;8.77;;;4.63;;
25913;SDS011;13718;50.922;5.346;2023-05-07T09:37:41;9.32;;;5.45;;
25913;SDS011;13718;50.922;5.346;2023-05-07T09:40:07;15.13;;;5.68;;
25913;SDS011;13718;50.922;5.346;2023-05-07T09:42:44;9.98;;;5.15;;
25913;SDS011;13718;50.922;5.346;2023-05-07T09:45:12;10.63;;;5.47;;
25913;SDS011;13718;50.922;5.346;2023-05-07T09:47:38;11.73;;;5.38;;
25913;SDS011;13718;50.922;5.346;2023-05-07T09:50:06;11.93;;;4.70;;
25913;SDS011;13718;50.922;5.346;2023-05-07T09:52:35;11.40;;;4.93;;
25913;SDS011;13718;50.922;5.346;2023-05-07T09:55:01;10.90;;;4.00;;
25913;SDS011;13718;50.922;5.346;2023-05-07T09:57:28;9.57;;;3.70;;
25913;SDS011;13718;50.922;5.346;2023-05-07T09:59:55;10.27;;;4.70;;
25913;SDS011;13718;50.922;5.346;2023-05-07T10:02:23;8.68;;;3.95;;
25913;SDS011;13718;50.922;5.346;2023-05-07T10:04:50;14.20;;;4.32;;
25913;SDS011;13718;50.922;5.346;2023-05-07T10:07:17;11.45;;;4.70;;
25913;SDS011;13718;50.922;5.346;2023-05-07T10:09:43;12.95;;;4.70;;
25913;SDS011;13718;50.922;5.346;2023-05-07T10:12:11;12.68;;;4.53;;
25913;SDS011;13718;50.922;5.346;2023-05-07T10:14:37;9.95;;;4.85;;
25913;SDS011;13718;50.922;5.346;2023-05-07T10:17:03;13.57;;;5.13;;
25913;SDS011;13718;50.922;5.346;2023-05-07T10:19:29;15.60;;;5.50;;
25913;SDS011;13718;50.922;5.346;2023-05-07T10:21:58;10.35;;;4.50;;
25913;SDS011;13718;50.922;5.346;2023-05-07T10:24:29;11.63;;;4.32;;
25913;SDS011;13718;50.922;5.346;2023-05-07T10:26:59;10.88;;;5.00;;
25913;SDS011;13718;50.922;5.346;2023-05-07T10:31:57;14.60;;;5.35;;
25913;SDS011;13718;50.922;5.346;2023-05-07T10:34:29;13.25;;;5.35;;
25913;SDS011;13718;50.922;5.346;2023-05-07T10:37:00;11.35;;;4.93;;
25913;SDS011;13718;50.922;5.346;2023-05-07T10:39:26;13.73;;;5.15;;
25913;SDS011;13718;50.922;5.346;2023-05-07T10:41:52;10.95;;;4.80;;
25913;SDS011;13718;50.922;5.346;2023-05-07T10:44:27;13.15;;;5.40;;
25913;SDS011;13718;50.922;5.346;2023-05-07T10:47:07;16.83;;;6.40;;
25913;SDS011;13718;50.922;5.346;2023-05-07T10:52:16;13.65;;;5.85;;
25913;SDS011;13718;50.922;5.346;2023-05-07T10:54:43;11.57;;;5.82;;
25913;SDS011;13718;50.922;5.346;2023-05-07T10:59:59;13.73;;;4.63;;
25913;SDS011;13718;50.922;5.346;2023-05-07T11:03:04;10.05;;;5.00;;
25913;SDS011;13718;50.922;5.346;2023-05-07T11:05:25;13.00;;;5.32;;
25913;SDS011;13718;50.922;5.346;2023-05-07T11:07:55;12.05;;;5.30;;
25913;SDS011;13718;50.922;5.346;2023-05-07T11:10:21;11.40;;;5.30;;
25913;SDS011;13718;50.922;5.346;2023-05-07T11:12:48;10.15;;;4.95;;
25913;SDS011;13718;50.922;5.346;2023-05-07T11:15:33;14.82;;;5.72;;
25913;SDS011;13718;50.922;5.346;2023-05-07T11:18:01;13.25;;;5.80;;
25913;SDS011;13718;50.922;5.346;2023-05-07T11:26:03;11.27;;;5.00;;
25913;SDS011;13718;50.922;5.346;2023-05-07T11:28:39;9.93;;;5.15;;
25913;SDS011;13718;50.922;5.346;2023-05-07T11:31:06;11.60;;;5.13;;
25913;SDS011;13718;50.922;5.346;2023-05-07T11:33:33;11.57;;;4.90;;
25913;SDS011;13718;50.922;5.346;2023-05-07T11:35:59;10.27;;;4.78;;
25913;SDS011;13718;50.922;5.346;2023-05-07T11:38:27;11.30;;;4.90;;
25913;SDS011;13718;50.922;5.346;2023-05-07T11:40:56;13.13;;;5.53;;
25913;SDS011;13718;50.922;5.346;2023-05-07T11:43:23;12.77;;;4.82;;
25913;SDS011;13718;50.922;5.346;2023-05-07T11:45:49;12.50;;;4.53;;
25913;SDS011;13718;50.922;5.346;2023-05-07T11:48:15;9.30;;;4.65;;
25913;SDS011;13718;50.922;5.346;2023-05-07T11:51:01;9.27;;;3.92;;
25913;SDS011;13718;50.922;5.346;2023-05-07T11:53:35;13.43;;;4.80;;
25913;SDS011;13718;50.922;5.346;2023-05-07T11:56:08;10.75;;;4.70;;
25913;SDS011;13718;50.922;5.346;2023-05-07T11:58:35;10.45;;;4.45;;
25913;SDS011;13718;50.922;5.346;2023-05-07T12:01:01;8.68;;;4.30;;
25913;SDS011;13718;50.922;5.346;2023-05-07T12:03:27;10.45;;;5.22;;
25913;SDS011;13718;50.922;5.346;2023-05-07T12:05:52;10.35;;;4.70;;
25913;SDS011;13718;50.922;5.346;2023-05-07T12:08:18;8.98;;;4.57;;
25913;SDS011;13718;50.922;5.346;2023-05-07T12:10:47;14.75;;;5.18;;
25913;SDS011;13718;50.922;5.346;2023-05-07T12:13:15;10.35;;;4.72;;
25913;SDS011;13718;50.922;5.346;2023-05-07T12:15:41;16.85;;;5.32;;
25913;SDS011;13718;50.922;5.346;2023-05-07T12:18:07;11.15;;;4.47;;
25913;SDS011;13718;50.922;5.346;2023-05-07T12:20:34;12.68;;;5.28;;
25913;SDS011;13718;50.922;5.346;2023-05-07T12:23:01;11.23;;;5.18;;
25913;SDS011;13718;50.922;5.346;2023-05-07T12:25:29;9.85;;;4.55;;
25913;SDS011;13718;50.922;5.346;2023-05-07T12:28:02;10.18;;;5.88;;
25913;SDS011;13718;50.922;5.346;2023-05-07T12:30:32;13.73;;;5.15;;
25913;SDS011;13718;50.922;5.346;2023-05-07T12:33:01;10.55;;;5.45;;
25913;SDS011;13718;50.922;5.346;2023-05-07T12:35:31;10.57;;;4.47;;
25913;SDS011;13718;50.922;5.346;2023-05-07T12:38:00;11.35;;;4.97;;
25913;SDS011;13718;50.922;5.346;2023-05-07T12:40:48;10.00;;;4.85;;
25913;SDS011;13718;50.922;5.346;2023-05-07T12:45:42;9.05;;;5.10;;
25913;SDS011;13718;50.922;5.346;2023-05-07T12:48:12;9.27;;;4.53;;
25913;SDS011;13718;50.922;5.346;2023-05-07T12:50:37;9.45;;;3.95;;
25913;SDS011;13718;50.922;5.346;2023-05-07T12:53:04;10.68;;;4.68;;
25913;SDS011;13718;50.922;5.346;2023-05-07T12:55:31;9.75;;;3.95;;
25913;SDS011;13718;50.922;5.346;2023-05-07T12:58:00;10.93;;;4.25;;
25913;SDS011;13718;50.922;5.346;2023-05-07T13:00:33;9.63;;;4.72;;
25913;SDS011;13718;50.922;5.346;2023-05-07T13:02:59;10.48;;;4.80;;
25913;SDS011;13718;50.922;5.346;2023-05-07T13:05:24;11.38;;;3.55;;
25913;SDS011;13718;50.922;5.346;2023-05-07T13:07:53;7.25;;;2.90;;
25913;SDS011;13718;50.922;5.346;2023-05-07T13:10:20;8.90;;;3.25;;
25913;SDS011;13718;50.922;5.346;2023-05-07T13:12:46;9.70;;;3.75;;
25913;SDS011;13718;50.922;5.346;2023-05-07T13:15:12;11.70;;;3.95;;
25913;SDS011;13718;50.922;5.346;2023-05-07T13:17:37;11.27;;;4.15;;
25913;SDS011;13718;50.922;5.346;2023-05-07T13:20:03;12.10;;;3.65;;
25913;SDS011;13718;50.922;5.346;2023-05-07T13:22:30;11.45;;;3.90;;
25913;SDS011;13718;50.922;5.346;2023-05-07T13:24:56;9.70;;;3.70;;
25913;SDS011;13718;50.922;5.346;2023-05-07T13:27:22;8.35;;;3.50;;
25913;SDS011;13718;50.922;5.346;2023-05-07T13:29:47;11.73;;;3.88;;
25913;SDS011;13718;50.922;5.346;2023-05-07T13:32:13;9.45;;;3.20;;
25913;SDS011;13718;50.922;5.346;2023-05-07T13:34:39;7.07;;;2.90;;
25913;SDS011;13718;50.922;5.346;2023-05-07T13:37:04;8.00;;;3.10;;
25913;SDS011;13718;50.922;5.346;2023-05-07T13:39:30;7.80;;;2.80;;
25913;SDS011;13718;50.922;5.346;2023-05-07T13:41:56;6.55;;;2.80;;
25913;SDS011;13718;50.922;5.346;2023-05-07T13:44:22;9.55;;;2.45;;
25913;SDS011;13718;50.922;5.346;2023-05-07T13:46:47;7.65;;;2.60;;
25913;SDS011;13718;50.922;5.346;2023-05-07T13:49:13;6.25;;;2.97;;
25913;SDS011;13718;50.922;5.346;2023-05-07T13:51:39;7.15;;;2.53;;
25913;SDS011;13718;50.922;5.346;2023-05-07T13:54:04;6.25;;;2.45;;
25913;SDS011;13718;50.922;5.346;2023-05-07T13:56:30;11.90;;;2.88;;
25913;SDS011;13718;50.922;5.346;2023-05-07T13:58:57;10.50;;;2.45;;
25913;SDS011;13718;50.922;5.346;2023-05-07T14:01:23;7.35;;;2.65;;
25913;SDS011;13718;50.922;5.346;2023-05-07T14:03:48;8.20;;;2.88;;
25913;SDS011;13718;50.922;5.346;2023-05-07T14:06:14;9.43;;;2.72;;
25913;SDS011;13718;50.922;5.346;2023-05-07T14:08:40;12.57;;;2.63;;
25913;SDS011;13718;50.922;5.346;2023-05-07T14:11:05;7.95;;;2.78;;
25913;SDS011;13718;50.922;5.346;2023-05-07T14:13:31;7.22;;;2.05;;
25913;SDS011;13718;50.922;5.346;2023-05-07T14:15:57;7.03;;;2.33;;
25913;SDS011;13718;50.922;5.346;2023-05-07T14:18:23;7.10;;;2.25;;
25913;SDS011;13718;50.922;5.346;2023-05-07T14:20:48;7.35;;;2.13;;
25913;SDS011;13718;50.922;5.346;2023-05-07T14:23:14;4.97;;;1.98;;
25913;SDS011;13718;50.922;5.346;2023-05-07T14:25:42;5.30;;;2.10;;
25913;SDS011;13718;50.922;5.346;2023-05-07T14:28:08;7.30;;;2.00;;
25913;SDS011;13718;50.922;5.346;2023-05-07T14:30:34;7.30;;;1.90;;
25913;SDS011;13718;50.922;5.346;2023-05-07T14:33:00;7.60;;;2.20;;
25913;SDS011;13718;50.922;5.346;2023-05-07T14:35:25;6.05;;;2.33;;
25913;SDS011;13718;50.922;5.346;2023-05-07T14:37:51;5.95;;;2.88;;
25913;SDS011;13718;50.922;5.346;2023-05-07T14:40:16;7.38;;;2.65;;
25913;SDS011;13718;50.922;5.346;2023-05-07T14:42:42;5.60;;;2.55;;
25913;SDS011;13718;50.922;5.346;2023-05-07T14:45:08;6.80;;;3.15;;